Time;durP1;ratioP1;P1;durP2;ratioP2;P2;SDS_P1;SDS_P2;PMS_P1;PMS_P2;Temp;Humidity;BMP_temperature;BMP_pressure;BME280_temperature;BME280_humidity;BME280_pressure;Samples;Min_cycle;Max_cycle;Signal;HPM_P1;HPM_P2
2023/05/10 00:02:04;;;;;;;9.57;8.20;;;13.50;99.90;;;;;;5095859;28;20036;-79
2023/05/10 00:04:29;;;;;;;8.63;7.55;;;13.40;99.90;;;;;;5095744;28;20082;-79
2023/05/10 00:06:55;;;;;;;8.13;7.25;;;13.50;99.90;;;;;;5094947;28;20117;-79
2023/05/10 00:09:20;;;;;;;7.65;6.85;;;13.40;99.90;;;;;;5093623;28;20039;-79
2023/05/10 00:11:46;;;;;;;7.30;6.60;;;13.40;99.90;;;;;;5095346;28;20562;-79
2023/05/10 00:14:12;;;;;;;7.60;6.78;;;13.40;99.90;;;;;;5093404;28;20123;-78
2023/05/10 00:16:37;;;;;;;7.85;6.93;;;13.30;99.90;;;;;;5092147;28;20074;-78
2023/05/10 00:19:03;;;;;;;7.93;6.43;;;13.30;99.90;;;;;;5093032;28;20047;-78
2023/05/10 00:21:28;;;;;;;7.57;6.78;;;13.30;99.90;;;;;;5092855;28;20085;-78
2023/05/10 00:23:54;;;;;;;7.50;6.45;;;13.30;99.90;;;;;;5094086;28;20419;-78
2023/05/10 00:26:20;;;;;;;8.35;6.40;;;13.30;99.90;;;;;;5091409;28;20119;-78
2023/05/10 00:28:45;;;;;;;8.10;6.97;;;13.30;99.90;;;;;;5091977;28;20068;-78
2023/05/10 00:31:11;;;;;;;8.45;6.68;;;13.30;99.90;;;;;;5092237;28;20055;-78
2023/05/10 00:33:36;;;;;;;7.45;6.60;;;13.30;99.90;;;;;;5091433;28;20093;-78
2023/05/10 00:36:02;;;;;;;6.95;6.25;;;13.30;99.90;;;;;;5092493;28;20078;-78
2023/05/10 00:38:28;;;;;;;8.77;6.40;;;13.30;99.90;;;;;;5091484;28;20036;-77
2023/05/10 00:40:54;;;;;;;8.10;5.82;;;13.30;99.90;;;;;;5091529;28;20032;-77
2023/05/10 00:43:19;;;;;;;8.25;6.25;;;13.30;99.90;;;;;;5091052;28;20051;-78
2023/05/10 00:45:45;;;;;;;8.57;5.78;;;13.30;99.90;;;;;;5091404;28;20170;-78
2023/05/10 00:48:10;;;;;;;6.78;5.65;;;13.20;99.90;;;;;;5090879;28;20407;-77
2023/05/10 00:50:36;;;;;;;6.50;5.90;;;13.20;99.90;;;;;;5091101;28;20050;-77
2023/05/10 00:53:02;;;;;;;5.45;4.95;;;13.20;99.90;;;;;;5091477;28;20028;-77
2023/05/10 00:55:28;;;;;;;6.38;5.78;;;13.20;99.90;;;;;;5091667;28;20073;-78
2023/05/10 00:57:54;;;;;;;6.93;6.10;;;13.10;99.90;;;;;;5104707;28;20048;-78
2023/05/10 01:00:20;;;;;;;7.90;5.90;;;13.10;99.90;;;;;;5091230;28;20127;-78
2023/05/10 01:02:46;;;;;;;6.47;5.80;;;13.00;99.90;;;;;;5091441;28;20097;-78
2023/05/10 01:05:12;;;;;;;9.25;6.78;;;13.10;99.90;;;;;;5074186;28;20063;-78
2023/05/10 01:07:38;;;;;;;6.65;5.95;;;13.00;99.90;;;;;;5091285;28;20040;-78
2023/05/10 01:10:07;;;;;;;6.53;5.85;;;13.00;99.90;;;;;;5091333;28;20036;-78
2023/05/10 01:12:39;;;;;;;7.10;6.40;;;13.00;99.90;;;;;;5091407;28;20035;-79
2023/05/10 01:15:07;;;;;;;10.13;7.00;;;13.00;99.90;;;;;;5091718;28;20093;-78
2023/05/10 01:17:34;;;;;;;8.27;6.13;;;13.00;99.90;;;;;;5094082;28;20419;-78
2023/05/10 01:20:00;;;;;;;7.85;6.38;;;13.00;99.90;;;;;;5067586;28;20045;-78
2023/05/10 01:22:53;;;;;;;7.65;6.85;;;13.00;99.90;;;;;;5083969;28;20028;-79
2023/05/10 01:25:37;;;;;;;7.20;6.45;;;12.90;99.90;;;;;;5094336;28;20039;-79
2023/05/10 01:28:06;;;;;;;10.07;7.70;;;12.90;99.90;;;;;;5095446;28;20101;-79
2023/05/10 01:30:50;;;;;;;8.80;7.57;;;12.90;99.90;;;;;;5094498;28;20396;-79
2023/05/10 01:33:19;;;;;;;;;;;12.90;99.90;;;;;;5094830;28;20035;-79
2023/05/10 01:35:56;;;;;;;7.70;6.90;;;12.90;99.90;;;;;;5114041;28;19967;-79
2023/05/10 01:38:51;;;;;;;9.25;7.65;;;12.90;99.90;;;;;;5096106;28;20123;-79
2023/05/10 01:41:30;;;;;;;8.52;7.63;;;12.90;99.90;;;;;;5094763;28;20495;-79
2023/05/10 01:44:03;;;;;;;10.05;8.05;;;12.90;99.90;;;;;;5094748;28;20069;-79
2023/05/10 01:46:36;;;;;;;9.50;8.20;;;12.90;99.90;;;;;;5092276;28;20047;-79
2023/05/10 01:49:03;;;;;;;10.75;7.10;;;12.90;99.90;;;;;;5073908;28;20101;-80
2023/05/10 01:51:37;;;;;;;9.02;7.22;;;12.90;99.90;;;;;;5090801;28;20514;-80
2023/05/10 01:54:03;;;;;;;;;;;12.90;99.90;;;;;;5091697;28;20051;-79
2023/05/10 01:56:32;;;;;;;9.55;7.55;;;13.00;99.90;;;;;;5102335;28;20375;-80
2023/05/10 01:59:01;;;;;;;8.05;7.22;;;12.90;99.90;;;;;;5091144;28;20048;-80
2023/05/10 02:01:27;;;;;;;8.93;7.90;;;12.80;99.90;;;;;;5090773;28;20504;-80
2023/05/10 02:03:55;;;;;;;8.63;7.38;;;12.80;99.90;;;;;;5090792;28;20037;-80
2023/05/10 02:06:23;;;;;;;9.45;7.35;;;12.90;99.90;;;;;;5090227;28;20040;-81
2023/05/10 02:08:50;;;;;;;9.88;7.30;;;12.90;99.90;;;;;;5077101;28;20037;-80
2023/05/10 02:11:18;;;;;;;8.80;7.22;;;12.80;99.90;;;;;;5092636;28;20040;-80
2023/05/10 02:13:47;;;;;;;9.48;7.00;;;12.80;99.90;;;;;;5094961;28;20044;-80
2023/05/10 02:16:13;;;;;;;8.80;7.63;;;12.80;99.90;;;;;;5095711;28;20035;-80
2023/05/10 02:18:41;;;;;;;10.02;7.70;;;12.70;99.90;;;;;;5097725;28;20043;-79
2023/05/10 02:21:07;;;;;;;8.57;7.35;;;12.70;99.90;;;;;;5096548;28;20044;-80
2023/05/10 02:23:35;;;;;;;8.88;7.80;;;12.70;99.90;;;;;;5094311;28;20470;-80
2023/05/10 02:26:02;;;;;;;8.75;7.80;;;12.70;99.90;;;;;;5097136;28;20053;-79
2023/05/10 02:28:29;;;;;;;8.52;7.53;;;12.70;99.90;;;;;;5097669;28;20395;-80
2023/05/10 02:30:55;;;;;;;8.77;7.30;;;12.70;99.90;;;;;;5098872;28;20087;-80
2023/05/10 02:33:21;;;;;;;9.43;7.43;;;12.70;99.90;;;;;;5099428;28;20067;-79
2023/05/10 02:35:48;;;;;;;8.80;7.32;;;12.70;99.90;;;;;;5099204;28;20502;-80
2023/05/10 02:38:15;;;;;;;9.80;7.55;;;12.70;99.90;;;;;;5097835;28;20067;-79
2023/05/10 02:40:42;;;;;;;9.07;7.32;;;12.70;99.90;;;;;;5099205;28;20066;-79
2023/05/10 02:43:13;;;;;;;11.40;7.68;;;12.70;99.90;;;;;;5095808;28;20036;-80
2023/05/10 02:45:40;;;;;;;13.10;7.80;;;12.70;99.90;;;;;;5082066;28;20481;-80
2023/05/10 02:48:06;;;;;;;9.95;7.57;;;12.70;99.90;;;;;;5096282;28;20115;-80
2023/05/10 02:50:33;;;;;;;10.90;7.82;;;12.70;99.90;;;;;;5077975;28;20153;-80
2023/05/10 02:53:10;;;;;;;10.48;8.77;;;12.70;99.90;;;;;;5094262;28;20046;-80
2023/05/10 02:55:40;;;;;;;11.60;8.55;;;12.70;99.90;;;;;;5102038;28;20291;-80
2023/05/10 02:58:05;;;;;;;12.30;8.98;;;12.80;99.90;;;;;;5106810;28;20047;-80
2023/05/10 03:00:31;;;;;;;12.52;9.20;;;12.70;99.90;;;;;;5094632;28;20044;-79
2023/05/10 03:02:56;;;;;;;12.10;9.65;;;12.80;99.90;;;;;;5092925;28;20507;-80
2023/05/10 03:05:22;;;;;;;12.95;10.07;;;12.70;99.90;;;;;;5093307;28;20044;-80
2023/05/10 03:07:48;;;;;;;13.98;10.25;;;12.70;99.90;;;;;;5092860;28;20039;-80
2023/05/10 03:10:14;;;;;;;14.60;10.27;;;12.70;99.90;;;;;;5092813;28;20461;-81
2023/05/10 03:12:55;;;;;;;16.17;10.95;;;12.70;99.90;;;;;;5107046;28;20038;-81
2023/05/10 03:15:37;;;;;;;15.07;10.93;;;12.70;99.90;;;;;;5104779;28;20044;-81
2023/05/10 03:18:15;;;;;;;16.13;11.10;;;12.70;99.90;;;;;;5099509;28;20035;-81
2023/05/10 03:20:48;;;;;;;16.70;10.98;;;12.70;99.90;;;;;;5083591;28;20156;-81
2023/05/10 03:23:27;;;;;;;16.85;11.52;;;12.70;99.90;;;;;;5077800;28;20195;-81
2023/05/10 03:25:53;;;;;;;17.75;11.85;;;12.70;99.90;;;;;;5092934;28;20415;-81
2023/05/10 03:28:20;;;;;;;18.70;12.68;;;12.60;99.90;;;;;;5087518;28;20044;-81
2023/05/10 03:30:46;;;;;;;20.10;13.75;;;12.70;99.90;;;;;;5094875;28;20027;-81
2023/05/10 03:33:13;;;;;;;20.10;13.00;;;12.60;99.90;;;;;;5095011;28;20081;-81
2023/05/10 03:35:38;;;;;;;23.52;13.13;;;12.60;99.90;;;;;;5092615;28;20071;-81
2023/05/10 03:38:04;;;;;;;19.48;12.60;;;12.60;99.90;;;;;;5092587;28;20078;-80
2023/05/10 03:40:31;;;;;;;23.08;14.13;;;12.70;99.90;;;;;;5092969;28;20032;-81
2023/05/10 03:43:00;;;;;;;20.63;12.65;;;12.70;99.90;;;;;;5061676;28;20057;-81
2023/05/10 03:45:26;;;;;;;20.58;12.82;;;12.70;99.90;;;;;;5091987;28;20035;-81
2023/05/10 03:47:51;;;;;;;21.55;12.63;;;12.70;99.90;;;;;;5091778;28;20488;-81
2023/05/10 03:50:18;;;;;;;21.98;13.32;;;12.70;99.90;;;;;;5092482;28;20040;-81
2023/05/10 03:52:44;;;;;;;19.52;12.68;;;12.70;99.90;;;;;;5092342;28;20044;-81
2023/05/10 03:55:09;;;;;;;20.83;13.23;;;12.70;99.90;;;;;;5091892;28;20051;-81
2023/05/10 03:57:35;;;;;;;20.95;12.95;;;12.70;99.90;;;;;;5093332;28;20043;-81
2023/05/10 04:00:01;;;;;;;21.05;13.27;;;12.60;99.90;;;;;;5092187;28;20464;-81
2023/05/10 04:02:26;;;;;;;19.52;12.88;;;12.60;99.90;;;;;;5088243;28;20499;-81
2023/05/10 04:04:52;;;;;;;19.88;12.05;;;12.60;99.90;;;;;;5092979;28;20583;-81
2023/05/10 04:07:18;;;;;;;18.92;11.98;;;12.60;99.90;;;;;;5075883;28;20526;-81
2023/05/10 04:09:43;;;;;;;18.48;12.57;;;12.60;99.90;;;;;;5075958;28;20496;-80
2023/05/10 04:12:09;;;;;;;17.10;12.13;;;12.60;99.90;;;;;;5101749;28;20035;-79
2023/05/10 04:14:35;;;;;;;14.63;10.57;;;12.60;99.90;;;;;;5103430;28;20044;-79
2023/05/10 04:17:00;;;;;;;17.17;11.55;;;12.50;99.90;;;;;;5115910;28;20047;-79
2023/05/10 04:19:30;;;;;;;16.17;11.60;;;12.50;99.90;;;;;;5098907;28;20040;-79
2023/05/10 04:21:55;;;;;;;15.50;11.95;;;12.50;99.90;;;;;;5094566;28;20039;-78
2023/05/10 04:24:21;;;;;;;14.13;9.95;;;12.50;99.90;;;;;;5092548;28;20093;-78
2023/05/10 04:26:46;;;;;;;14.95;10.93;;;12.50;99.90;;;;;;5092466;28;20032;-78
2023/05/10 04:29:12;;;;;;;15.23;9.65;;;12.40;99.90;;;;;;5100215;28;20058;-78
2023/05/10 04:31:37;;;;;;;11.68;9.52;;;12.40;99.90;;;;;;5075974;28;20512;-78
2023/05/10 04:34:03;;;;;;;10.63;8.55;;;12.40;99.90;;;;;;5100401;28;20058;-77
2023/05/10 04:36:28;;;;;;;11.10;7.55;;;12.40;99.90;;;;;;5095564;28;20511;-76
2023/05/10 04:38:54;;;;;;;8.13;6.22;;;12.40;99.90;;;;;;5091463;28;20082;-76
2023/05/10 04:41:20;;;;;;;8.25;6.28;;;12.40;99.90;;;;;;5091073;28;20048;-76
2023/05/10 04:43:46;;;;;;;5.95;4.95;;;12.30;99.90;;;;;;5091087;28;20048;-76
2023/05/10 04:46:12;;;;;;;6.85;5.25;;;12.30;99.90;;;;;;5092218;28;20093;-76
2023/05/10 04:48:37;;;;;;;5.43;4.72;;;12.20;99.90;;;;;;5090499;28;20032;-76
2023/05/10 04:51:03;;;;;;;5.25;4.40;;;12.20;99.90;;;;;;5092099;28;20176;-76
2023/05/10 04:53:29;;;;;;;4.57;4.03;;;12.20;99.90;;;;;;5091069;28;20446;-75
2023/05/10 04:55:55;;;;;;;5.00;4.18;;;12.20;99.90;;;;;;5074345;28;20092;-75
2023/05/10 04:58:21;;;;;;;5.40;3.72;;;12.20;99.90;;;;;;5100382;28;20127;-75
2023/05/10 05:00:46;;;;;;;6.07;4.38;;;12.20;99.90;;;;;;5090150;28;20411;-75
2023/05/10 05:03:12;;;;;;;5.88;4.10;;;12.20;99.90;;;;;;5090271;28;20071;-75
2023/05/10 05:05:37;;;;;;;6.00;4.28;;;12.20;99.90;;;;;;5090338;28;20044;-74
2023/05/10 05:08:03;;;;;;;4.05;3.50;;;12.20;99.90;;;;;;5090399;28;20043;-75
2023/05/10 05:10:29;;;;;;;5.78;4.05;;;12.20;99.90;;;;;;5090066;28;20040;-74
2023/05/10 05:12:55;;;;;;;5.47;3.97;;;12.20;99.90;;;;;;5090213;28;20043;-75
2023/05/10 05:15:20;;;;;;;5.20;3.88;;;12.20;99.90;;;;;;5090450;28;20563;-75
2023/05/10 05:17:46;;;;;;;4.55;3.65;;;12.20;99.90;;;;;;5058939;28;20146;-74
2023/05/10 05:20:12;;;;;;;9.07;3.47;;;12.20;99.90;;;;;;5090156;28;20403;-74
2023/05/10 05:22:38;;;;;;;4.53;3.60;;;12.20;99.90;;;;;;5089980;28;20390;-74
2023/05/10 05:25:05;;;;;;;4.95;3.85;;;12.20;99.90;;;;;;5089964;28;20045;-74
2023/05/10 05:27:31;;;;;;;5.78;3.80;;;12.20;99.90;;;;;;5089934;28;20121;-73
2023/05/10 05:29:57;;;;;;;4.80;3.80;;;12.30;99.90;;;;;;5090103;28;20390;-74
2023/05/10 05:32:23;;;;;;;5.75;3.50;;;12.30;99.90;;;;;;5089770;28;20032;-74
2023/05/10 05:34:49;;;;;;;4.82;3.72;;;12.30;99.90;;;;;;5090036;28;20407;-74
2023/05/10 05:37:15;;;;;;;4.82;3.60;;;12.30;99.90;;;;;;5089870;28;20036;-74
2023/05/10 05:39:42;;;;;;;6.13;3.90;;;12.30;99.90;;;;;;5089810;28;20442;-75
2023/05/10 05:42:08;;;;;;;4.57;3.42;;;12.30;99.90;;;;;;5089857;28;20043;-74
2023/05/10 05:44:34;;;;;;;4.68;3.60;;;12.30;99.90;;;;;;5090473;28;20090;-74
2023/05/10 05:46:59;;;;;;;5.45;4.03;;;12.30;99.90;;;;;;5093692;28;20415;-74
2023/05/10 05:49:25;;;;;;;5.25;3.70;;;12.30;99.90;;;;;;5093850;28;20036;-73
2023/05/10 05:51:50;;;;;;;5.28;3.83;;;12.40;99.90;;;;;;5093834;28;20115;-73
2023/05/10 05:54:16;;;;;;;6.35;4.30;;;12.40;99.90;;;;;;5095159;28;20440;-73
2023/05/10 05:56:42;;;;;;;5.53;3.90;;;12.40;99.90;;;;;;5104590;28;20046;-73
2023/05/10 05:59:07;;;;;;;5.43;3.97;;;12.40;99.90;;;;;;5096753;28;20119;-73
2023/05/10 06:01:33;;;;;;;5.22;3.90;;;12.40;99.90;;;;;;5093717;28;20517;-73
2023/05/10 06:03:58;;;;;;;6.68;3.88;;;12.40;99.90;;;;;;5093409;28;20474;-73
2023/05/10 06:06:24;;;;;;;6.00;4.25;;;12.40;99.90;;;;;;5093653;28;20116;-73
2023/05/10 06:08:49;;;;;;;4.60;4.13;;;12.40;99.90;;;;;;5093425;28;20032;-73
2023/05/10 06:11:15;;;;;;;5.97;4.00;;;12.40;99.90;;;;;;5093455;28;20119;-72
2023/05/10 06:13:42;;;;;;;5.68;4.15;;;12.40;99.90;;;;;;5093585;28;20120;-73
2023/05/10 06:16:07;;;;;;;5.95;4.53;;;12.40;99.90;;;;;;5093339;28;20044;-73
2023/05/10 06:18:33;;;;;;;6.25;4.63;;;12.40;99.90;;;;;;5093232;28;20089;-73
2023/05/10 06:20:59;;;;;;;5.38;4.07;;;12.40;99.90;;;;;;5093382;28;20044;-72
2023/05/10 06:23:25;;;;;;;5.35;4.47;;;12.30;99.90;;;;;;5093358;28;20039;-73
2023/05/10 06:25:51;;;;;;;7.22;5.50;;;12.30;99.90;;;;;;5094681;28;20044;-73
2023/05/10 06:28:16;;;;;;;9.27;5.95;;;12.30;99.90;;;;;;5093311;28;20039;-72
2023/05/10 06:30:42;;;;;;;11.70;7.63;;;12.30;99.90;;;;;;5092894;28;20036;-73
2023/05/10 06:33:08;;;;;;;13.18;8.27;;;12.30;99.90;;;;;;5093075;28;20040;-73
2023/05/10 06:35:33;;;;;;;15.52;10.30;;;12.20;99.90;;;;;;5094656;28;20036;-74
2023/05/10 06:37:59;;;;;;;14.10;9.43;;;12.20;99.90;;;;;;5092849;28;20415;-74
2023/05/10 06:40:25;;;;;;;12.65;8.18;;;12.20;99.90;;;;;;5092932;28;20036;-74
2023/05/10 06:42:51;;;;;;;12.35;8.15;;;12.20;99.90;;;;;;5092850;28;20396;-73
2023/05/10 06:45:16;;;;;;;13.13;8.05;;;12.20;99.90;;;;;;5093173;28;20456;-74
2023/05/10 06:47:42;;;;;;;7.47;5.55;;;12.20;99.90;;;;;;5092817;28;20043;-73
2023/05/10 06:50:09;;;;;;;8.55;5.45;;;12.20;99.90;;;;;;5092667;28;20096;-73
2023/05/10 06:52:35;;;;;;;5.28;3.90;;;12.20;99.90;;;;;;5067157;28;20045;-74
2023/05/10 06:55:00;;;;;;;4.30;3.50;;;12.20;99.90;;;;;;5070589;28;20047;-74
2023/05/10 06:57:26;;;;;;;3.42;2.75;;;12.20;99.90;;;;;;5106975;28;20044;-74
2023/05/10 06:59:52;;;;;;;2.97;2.30;;;12.20;99.90;;;;;;5092494;28;20036;-74
2023/05/10 07:02:17;;;;;;;2.20;1.80;;;12.20;99.90;;;;;;5092836;28;20398;-74
2023/05/10 07:04:43;;;;;;;2.22;1.85;;;12.20;99.90;;;;;;5092875;28;20142;-74
2023/05/10 07:07:08;;;;;;;2.60;1.98;;;12.10;99.90;;;;;;5092663;28;20525;-73
2023/05/10 07:09:34;;;;;;;2.10;1.73;;;12.10;99.90;;;;;;5092258;28;20057;-74
2023/05/10 07:12:01;;;;;;;2.45;2.00;;;12.10;99.90;;;;;;5092669;28;20161;-74
2023/05/10 07:14:27;;;;;;;2.60;2.22;;;12.20;99.90;;;;;;5092322;28;20056;-73
2023/05/10 07:16:53;;;;;;;3.75;1.80;;;12.20;99.90;;;;;;5092493;28;20115;-74
2023/05/10 07:19:19;;;;;;;4.00;2.38;;;12.20;99.90;;;;;;5092061;28;20479;-75
2023/05/10 07:21:45;;;;;;;3.60;2.58;;;12.20;99.90;;;;;;5075525;28;20138;-74
2023/05/10 07:24:10;;;;;;;3.03;2.42;;;12.20;99.90;;;;;;5092015;28;20044;-74
2023/05/10 07:26:36;;;;;;;3.70;2.50;;;12.20;99.90;;;;;;5092046;28;20036;-75
2023/05/10 07:29:02;;;;;;;3.05;2.50;;;12.30;99.90;;;;;;5091843;28;20044;-74
2023/05/10 07:31:27;;;;;;;3.42;3.05;;;12.30;99.90;;;;;;5091944;28;20044;-74
2023/05/10 07:33:53;;;;;;;3.55;2.92;;;12.30;99.90;;;;;;5092222;28;20043;-76
2023/05/10 07:36:19;;;;;;;3.85;2.83;;;12.40;99.90;;;;;;5091863;28;20036;-75
2023/05/10 07:38:44;;;;;;;4.32;3.25;;;12.40;99.90;;;;;;5091976;28;20040;-75
2023/05/10 07:41:11;;;;;;;3.45;3.15;;;12.30;99.90;;;;;;5092123;28;20438;-75
2023/05/10 07:43:37;;;;;;;4.13;3.72;;;12.40;99.90;;;;;;5092000;28;20473;-77
2023/05/10 07:46:03;;;;;;;4.35;3.28;;;12.40;99.90;;;;;;5091935;28;20044;-75
2023/05/10 07:48:28;;;;;;;4.38;3.97;;;12.40;99.90;;;;;;5092015;28;20522;-76
2023/05/10 07:50:54;;;;;;;4.32;3.92;;;12.40;99.90;;;;;;5091786;28;20040;-75
2023/05/10 07:53:19;;;;;;;4.45;4.05;;;12.40;99.90;;;;;;5091547;28;20077;-75
2023/05/10 07:55:50;;;;;;;5.57;4.25;;;12.30;99.90;;;;;;5094596;28;20487;-76
2023/05/10 07:58:16;;;;;;;4.43;4.00;;;12.30;99.90;;;;;;5102258;28;20040;-75
2023/05/10 08:00:41;;;;;;;4.75;3.63;;;12.40;99.90;;;;;;5091349;28;20040;-75
2023/05/10 08:03:07;;;;;;;4.57;3.58;;;12.40;99.90;;;;;;5091491;28;20048;-75
2023/05/10 08:05:32;;;;;;;5.60;3.97;;;12.30;99.90;;;;;;5091610;28;20457;-75
2023/05/10 08:07:59;;;;;;;6.97;3.90;;;12.40;99.90;;;;;;5090833;28;20468;-76
2023/05/10 08:10:25;;;;;;;5.15;4.15;;;12.40;99.90;;;;;;5091510;28;20084;-77
2023/05/10 08:12:50;;;;;;;4.65;4.05;;;12.40;99.90;;;;;;5091487;28;20347;-76
2023/05/10 08:15:16;;;;;;;4.40;3.97;;;12.50;99.90;;;;;;5091224;28;20040;-77
2023/05/10 08:17:42;;;;;;;5.93;4.13;;;12.50;99.90;;;;;;5091295;28;20491;-75
2023/05/10 08:20:08;;;;;;;5.28;3.67;;;12.50;99.90;;;;;;5091541;28;20426;-76
2023/05/10 08:22:34;;;;;;;4.88;3.60;;;12.60;99.90;;;;;;5091099;28;20578;-76
2023/05/10 08:25:00;;;;;;;4.80;3.90;;;12.60;99.90;;;;;;5091237;28;20119;-77
2023/05/10 08:27:25;;;;;;;4.28;3.88;;;12.70;99.90;;;;;;5091437;28;20040;-76
2023/05/10 08:29:51;;;;;;;5.63;3.88;;;12.70;99.90;;;;;;5090808;28;20080;-79
2023/05/10 08:32:17;;;;;;;4.00;3.60;;;12.70;99.90;;;;;;5091431;28;20051;-76
2023/05/10 08:34:43;;;;;;;5.07;4.03;;;12.70;99.90;;;;;;5092401;28;20059;-77
2023/05/10 08:37:08;;;;;;;4.78;4.07;;;12.80;99.90;;;;;;5090946;28;20032;-76
2023/05/10 08:39:35;;;;;;;6.68;4.43;;;12.80;99.90;;;;;;5091254;28;20047;-80
2023/05/10 08:42:03;;;;;;;6.88;4.30;;;12.80;99.90;;;;;;5090856;28;20054;-77
2023/05/10 08:44:34;;;;;;;6.35;4.75;;;12.70;99.90;;;;;;5090754;28;20403;-76
2023/05/10 08:47:02;;;;;;;7.22;4.90;;;12.80;99.90;;;;;;5090838;28;20499;-77
2023/05/10 08:49:31;;;;;;;7.35;5.75;;;12.80;99.90;;;;;;5090747;28;20044;-80
2023/05/10 08:51:59;;;;;;;7.47;5.68;;;12.80;99.90;;;;;;5090657;28;20032;-77
2023/05/10 08:54:25;;;;;;;6.30;5.70;;;12.80;99.90;;;;;;5090739;28;20075;-77
2023/05/10 08:56:51;;;;;;;7.97;5.85;;;12.80;99.90;;;;;;5102577;28;20039;-77
2023/05/10 08:59:17;;;;;;;8.27;6.35;;;12.80;99.90;;;;;;5092398;28;20039;-78
2023/05/10 09:01:45;;;;;;;7.47;5.82;;;12.80;99.90;;;;;;5090755;28;20106;-76
2023/05/10 09:04:11;;;;;;;7.38;6.57;;;12.80;99.90;;;;;;5090404;28;20040;-77
2023/05/10 09:06:38;;;;;;;7.60;6.45;;;12.80;99.90;;;;;;5091158;28;20390;-77
2023/05/10 09:09:03;;;;;;;9.80;6.18;;;12.80;99.90;;;;;;5090176;28;20090;-76
2023/05/10 09:11:29;;;;;;;7.22;5.45;;;12.90;99.90;;;;;;5090525;28;20494;-77
2023/05/10 09:13:56;;;;;;;7.85;6.10;;;12.90;99.90;;;;;;5103442;28;20099;-76
2023/05/10 09:16:22;;;;;;;7.82;5.80;;;12.90;99.90;;;;;;5091646;28;20518;-77
2023/05/10 09:18:49;;;;;;;7.65;6.05;;;12.90;99.90;;;;;;5090013;28;20047;-76
2023/05/10 09:21:14;;;;;;;7.53;6.35;;;12.90;99.90;;;;;;5090028;28;20070;-76
2023/05/10 09:23:43;;;;;;;8.43;6.45;;;13.00;99.90;;;;;;5090195;28;20119;-77
2023/05/10 09:26:09;;;;;;;8.35;5.68;;;13.00;99.90;;;;;;5090908;28;20043;-76
2023/05/10 09:28:56;;;;;;;6.90;5.32;;;13.10;99.90;;;;;;5089849;28;20032;-77
2023/05/10 09:31:24;;;;;;;7.05;5.30;;;13.10;99.90;;;;;;5073164;28;20043;-76
2023/05/10 09:33:51;;;;;;;10.45;5.60;;;13.10;99.90;;;;;;5090059;28;20050;-76
2023/05/10 09:36:17;;;;;;;7.20;5.68;;;13.20;99.90;;;;;;5073083;28;20097;-76
2023/05/10 09:38:51;;;;;;;9.00;6.00;;;13.20;99.90;;;;;;5089787;28;20039;-77
2023/05/10 09:41:22;;;;;;;10.85;5.55;;;13.10;99.90;;;;;;5089910;28;20051;-76
2023/05/10 09:43:48;;;;;;;7.30;5.05;;;13.20;99.90;;;;;;5090107;28;20093;-76
2023/05/10 09:46:15;;;;;;;7.25;6.20;;;13.30;99.90;;;;;;5060614;28;20028;-77
2023/05/10 09:48:43;;;;;;;7.80;5.88;;;13.40;99.90;;;;;;5088216;28;20036;-76
2023/05/10 09:51:09;;;;;;;8.85;6.80;;;13.50;99.90;;;;;;5073417;28;20043;-76
2023/05/10 09:53:35;;;;;;;9.82;6.75;;;13.40;99.90;;;;;;5072852;28;20457;-77
2023/05/10 09:56:00;;;;;;;9.90;6.88;;;13.40;99.90;;;;;;5078721;28;20123;-78
2023/05/10 09:58:26;;;;;;;9.98;7.00;;;13.40;99.90;;;;;;5100098;28;20078;-78
2023/05/10 10:00:53;;;;;;;10.32;6.60;;;13.40;99.90;;;;;;5090746;28;20036;-78
2023/05/10 10:03:20;;;;;;;8.93;6.30;;;13.50;99.90;;;;;;5089938;28;20052;-77
2023/05/10 10:05:48;;;;;;;8.45;6.47;;;13.70;99.90;;;;;;5090193;28;20040;-78
2023/05/10 10:08:14;;;;;;;10.70;6.10;;;14.00;99.90;;;;;;5090913;28;20032;-78
2023/05/10 10:10:41;;;;;;;7.97;6.45;;;14.00;99.90;;;;;;5091354;28;20040;-78
2023/05/10 10:13:07;;;;;;;7.95;6.15;;;14.10;99.90;;;;;;5091575;28;20089;-79
2023/05/10 10:15:34;;;;;;;7.10;5.40;;;14.10;99.90;;;;;;5074063;28;20063;-78
2023/05/10 10:18:00;;;;;;;9.55;5.97;;;14.00;99.90;;;;;;5091196;28;20074;-78
2023/05/10 10:20:26;;;;;;;6.78;4.65;;;14.00;99.90;;;;;;5090993;28;20036;-78
2023/05/10 10:22:52;;;;;;;7.78;5.18;;;14.00;99.90;;;;;;5092095;28;20079;-80
2023/05/10 10:25:21;;;;;;;6.88;5.15;;;14.00;99.90;;;;;;5074905;28;20032;-79
2023/05/10 10:27:53;;;;;;;7.65;5.47;;;14.00;99.90;;;;;;5091526;28;20044;-78
2023/05/10 10:30:25;;;;;;;6.72;4.80;;;13.90;99.90;;;;;;5092855;28;20042;-80
2023/05/10 10:33:02;;;;;;;5.25;4.20;;;13.90;99.90;;;;;;5095602;28;20036;-80
2023/05/10 10:35:30;;;;;;;5.72;4.43;;;13.90;99.90;;;;;;5095933;28;20040;-80
2023/05/10 10:37:56;;;;;;;5.05;3.80;;;13.80;99.90;;;;;;5095859;28;20327;-79
2023/05/10 10:40:30;;;;;;;6.55;4.22;;;13.90;99.90;;;;;;5096498;28;20318;-81
2023/05/10 10:42:56;;;;;;;6.57;4.10;;;13.90;99.90;;;;;;5097373;28;20054;-80
2023/05/10 10:45:23;;;;;;;6.38;4.78;;;14.00;99.90;;;;;;5096130;28;20114;-79
2023/05/10 10:47:49;;;;;;;7.10;4.90;;;14.20;99.90;;;;;;5096068;28;20113;-79
2023/05/10 10:50:18;;;;;;;6.40;4.68;;;14.30;99.90;;;;;;5109335;28;20044;-80
2023/05/10 10:52:45;;;;;;;5.82;4.85;;;14.40;99.90;;;;;;5079379;28;20068;-80
2023/05/10 10:55:12;;;;;;;5.95;4.72;;;14.50;99.90;;;;;;5096457;28;20542;-81
2023/05/10 10:57:44;;;;;;;6.60;4.78;;;14.70;99.90;;;;;;5109742;28;20113;-81
2023/05/10 11:00:30;;;;;;;6.70;5.00;;;14.70;99.90;;;;;;5084325;28;20504;-80
2023/05/10 11:03:18;;;;;;;7.85;4.85;;;14.70;99.90;;;;;;5071531;28;20039;-80
2023/05/10 11:05:48;;;;;;;7.30;5.10;;;14.70;99.90;;;;;;5101999;28;20073;-80
2023/05/10 11:08:27;;;;;;;6.07;4.90;;;14.60;99.90;;;;;;5096352;28;20039;-78
2023/05/10 11:11:17;;;;;;;6.10;4.63;;;14.50;99.90;;;;;;5096248;28;20032;-80
2023/05/10 11:13:44;;;;;;;7.70;4.82;;;14.40;99.90;;;;;;5080091;28;20047;-80
2023/05/10 11:16:23;;;;;;;6.05;5.18;;;14.30;99.90;;;;;;5096119;28;20047;-80
2023/05/10 11:19:09;;;;;;;6.43;5.20;;;14.30;99.90;;;;;;5095817;28;20089;-80
2023/05/10 11:22:11;;;;;;;8.07;6.20;;;14.30;99.90;;;;;;5082539;28;20035;-80
2023/05/10 11:24:37;;;;;;;8.32;5.28;;;14.20;99.90;;;;;;5095481;28;20047;-80
2023/05/10 11:27:02;;;;;;;8.02;6.70;;;14.20;99.90;;;;;;5089880;28;20037;-79
2023/05/10 11:29:28;;;;;;;8.80;6.85;;;14.10;99.90;;;;;;5091088;28;20036;-80
2023/05/10 11:31:57;;;;;;;9.27;7.43;;;14.20;99.90;;;;;;5096559;28;20086;-80
2023/05/10 11:34:33;;;;;;;9.05;6.45;;;14.10;99.90;;;;;;5109806;28;20478;-80
2023/05/10 11:37:00;;;;;;;7.55;6.28;;;14.00;99.90;;;;;;5095985;28;20568;-80
2023/05/10 11:39:27;;;;;;;8.20;6.30;;;14.00;99.90;;;;;;5096348;28;20065;-81
2023/05/10 11:41:53;;;;;;;11.00;6.07;;;14.10;99.90;;;;;;5095312;28;20438;-80
2023/05/10 11:44:18;;;;;;;8.20;6.07;;;14.00;99.90;;;;;;5095452;28;20040;-80
2023/05/10 11:46:44;;;;;;;8.52;5.95;;;14.10;99.90;;;;;;5096193;28;20086;-79
2023/05/10 11:49:10;;;;;;;12.13;7.18;;;14.10;99.90;;;;;;5070544;28;20032;-81
2023/05/10 11:51:36;;;;;;;9.70;6.35;;;14.20;99.90;;;;;;5089992;28;20040;-81
2023/05/10 11:54:08;;;;;;;11.68;5.90;;;14.20;99.90;;;;;;5093479;28;20119;-81
2023/05/10 11:56:33;;;;;;;9.27;5.65;;;14.30;99.90;;;;;;5103432;28;20498;-81
2023/05/10 11:59:01;;;;;;;9.82;6.40;;;14.40;99.90;;;;;;5097557;28;20046;-81
2023/05/10 12:01:28;;;;;;;8.43;6.70;;;14.50;99.90;;;;;;5092652;28;20113;-82
2023/05/10 12:03:58;;;;;;;7.82;5.85;;;14.50;99.90;;;;;;5092908;28;20032;-81
2023/05/10 12:06:28;;;;;;;9.38;6.25;;;14.60;99.90;;;;;;5092273;28;20137;-81
2023/05/10 12:08:53;;;;;;;10.02;6.50;;;14.60;99.90;;;;;;5094064;28;20105;-80
2023/05/10 12:11:21;;;;;;;9.88;6.68;;;14.70;99.90;;;;;;5093685;28;20069;-82
2023/05/10 12:13:47;;;;;;;10.02;6.40;;;14.80;99.90;;;;;;5092171;28;20122;-81
2023/05/10 12:16:18;;;;;;;9.43;6.85;;;14.80;99.90;;;;;;5075561;28;20066;-82
2023/05/10 12:18:44;;;;;;;8.30;5.93;;;14.90;99.90;;;;;;5092292;28;20048;-82
2023/05/10 12:21:11;;;;;;;9.50;6.63;;;14.90;99.90;;;;;;5093220;28;20267;-81
2023/05/10 12:23:37;;;;;;;9.48;6.57;;;14.90;99.90;;;;;;5092746;28;20040;-82
2023/05/10 12:26:06;;;;;;;10.05;7.10;;;14.90;99.90;;;;;;5091475;28;20107;-82
2023/05/10 12:28:32;;;;;;;11.13;6.07;;;14.90;99.90;;;;;;5092129;28;20036;-82
2023/05/10 12:30:59;;;;;;;8.07;5.95;;;14.90;99.90;;;;;;5104890;28;20075;-81
2023/05/10 12:33:25;;;;;;;8.88;6.35;;;14.80;99.90;;;;;;5075732;28;20036;-81
2023/05/10 12:35:52;;;;;;;7.85;5.68;;;14.70;99.90;;;;;;5092003;28;20461;-82
2023/05/10 12:38:33;;;;;;;8.90;6.03;;;14.60;99.90;;;;;;5091018;28;20048;-83
2023/05/10 12:41:00;;;;;;;8.48;5.70;;;14.50;99.90;;;;;;5074216;28;20044;-82
2023/05/10 12:43:25;;;;;;;10.05;6.10;;;14.60;99.90;;;;;;5073810;28;20511;-83
2023/05/10 12:45:51;;;;;;;8.90;6.20;;;14.50;99.90;;;;;;5090742;28;20071;-82